sensor_id;sensor_type;location;lat;lon;timestamp;temperature;humidity
18823;DHT22;9540;51.550;7.980;2024-03-02T00:00:30;7.80;99.90
18823;DHT22;9540;51.550;7.980;2024-03-02T00:02:57;7.80;99.90
18823;DHT22;9540;51.550;7.980;2024-03-02T00:05:25;7.70;99.90
18823;DHT22;9540;51.550;7.980;2024-03-02T00:07:54;7.70;99.90
18823;DHT22;9540;51.550;7.980;2024-03-02T00:10:22;7.70;99.90
18823;DHT22;9540;51.550;7.980;2024-03-02T00:12:54;7.80;99.90
18823;DHT22;9540;51.550;7.980;2024-03-02T00:15:40;7.90;99.90
18823;DHT22;9540;51.550;7.980;2024-03-02T00:18:09;7.90;99.90
18823;DHT22;9540;51.550;7.980;2024-03-02T00:20:38;7.90;99.90
18823;DHT22;9540;51.550;7.980;2024-03-02T00:23:07;7.80;99.90
18823;DHT22;9540;51.550;7.980;2024-03-02T00:25:41;7.80;99.90
18823;DHT22;9540;51.550;7.980;2024-03-02T00:28:17;7.70;99.90
18823;DHT22;9540;51.550;7.980;2024-03-02T00:30:55;7.70;99.90
18823;DHT22;9540;51.550;7.980;2024-03-02T00:33:23;7.70;99.90
18823;DHT22;9540;51.550;7.980;2024-03-02T00:35:52;7.70;99.90
18823;DHT22;9540;51.550;7.980;2024-03-02T00:38:19;7.60;99.90
18823;DHT22;9540;51.550;7.980;2024-03-02T00:40:46;7.50;99.90
18823;DHT22;9540;51.550;7.980;2024-03-02T00:46:20;7.40;99.90
18823;DHT22;9540;51.550;7.980;2024-03-02T00:48:55;7.40;99.90
18823;DHT22;9540;51.550;7.980;2024-03-02T00:51:26;7.40;99.90
18823;DHT22;9540;51.550;7.980;2024-03-02T00:53:54;7.30;99.90
18823;DHT22;9540;51.550;7.980;2024-03-02T00:56:22;7.10;99.90
18823;DHT22;9540;51.550;7.980;2024-03-02T00:58:50;7.00;99.90
18823;DHT22;9540;51.550;7.980;2024-03-02T01:01:17;7.00;99.90
18823;DHT22;9540;51.550;7.980;2024-03-02T01:03:45;7.00;99.90
18823;DHT22;9540;51.550;7.980;2024-03-02T01:06:13;7.20;99.90
18823;DHT22;9540;51.550;7.980;2024-03-02T01:08:42;7.20;99.90
18823;DHT22;9540;51.550;7.980;2024-03-02T01:11:09;7.20;99.90
18823;DHT22;9540;51.550;7.980;2024-03-02T01:13:36;7.10;99.90
18823;DHT22;9540;51.550;7.980;2024-03-02T01:16:04;7.00;99.90
18823;DHT22;9540;51.550;7.980;2024-03-02T01:18:31;7.00;99.90
18823;DHT22;9540;51.550;7.980;2024-03-02T01:20:58;6.90;99.90
18823;DHT22;9540;51.550;7.980;2024-03-02T01:23:26;7.00;99.90
18823;DHT22;9540;51.550;7.980;2024-03-02T01:25:54;7.00;99.90
18823;DHT22;9540;51.550;7.980;2024-03-02T01:28:22;7.00;99.90
18823;DHT22;9540;51.550;7.980;2024-03-02T01:30:49;7.00;99.90
18823;DHT22;9540;51.550;7.980;2024-03-02T01:33:16;7.00;99.90
18823;DHT22;9540;51.550;7.980;2024-03-02T01:35:43;6.90;99.90
18823;DHT22;9540;51.550;7.980;2024-03-02T01:38:11;7.00;99.90
18823;DHT22;9540;51.550;7.980;2024-03-02T01:40:38;7.10;99.90
18823;DHT22;9540;51.550;7.980;2024-03-02T01:43:07;7.10;99.90
18823;DHT22;9540;51.550;7.980;2024-03-02T01:45:34;7.00;99.90
18823;DHT22;9540;51.550;7.980;2024-03-02T01:48:03;6.90;99.90
18823;DHT22;9540;51.550;7.980;2024-03-02T01:50:32;6.80;99.90
18823;DHT22;9540;51.550;7.980;2024-03-02T01:52:59;6.80;99.90
18823;DHT22;9540;51.550;7.980;2024-03-02T01:55:27;6.90;99.90
18823;DHT22;9540;51.550;7.980;2024-03-02T01:57:56;7.00;99.90
18823;DHT22;9540;51.550;7.980;2024-03-02T02:00:24;7.10;99.90
18823;DHT22;9540;51.550;7.980;2024-03-02T02:02:52;7.00;99.90
18823;DHT22;9540;51.550;7.980;2024-03-02T02:05:20;7.10;99.90
18823;DHT22;9540;51.550;7.980;2024-03-02T02:07:47;7.10;99.90
18823;DHT22;9540;51.550;7.980;2024-03-02T02:10:14;7.10;99.90
18823;DHT22;9540;51.550;7.980;2024-03-02T02:12:42;7.20;99.90
18823;DHT22;9540;51.550;7.980;2024-03-02T02:15:24;7.20;99.90
18823;DHT22;9540;51.550;7.980;2024-03-02T02:17:52;7.20;99.90
18823;DHT22;9540;51.550;7.980;2024-03-02T02:20:19;7.30;99.90
18823;DHT22;9540;51.550;7.980;2024-03-02T02:22:56;7.30;99.90
18823;DHT22;9540;51.550;7.980;2024-03-02T02:25:23;7.20;99.90
18823;DHT22;9540;51.550;7.980;2024-03-02T02:27:50;7.30;99.90
18823;DHT22;9540;51.550;7.980;2024-03-02T02:30:19;7.40;99.90
18823;DHT22;9540;51.550;7.980;2024-03-02T02:32:46;7.40;99.90
18823;DHT22;9540;51.550;7.980;2024-03-02T02:35:13;7.30;99.90
18823;DHT22;9540;51.550;7.980;2024-03-02T02:37:41;7.20;99.90
18823;DHT22;9540;51.550;7.980;2024-03-02T02:40:11;7.20;99.90
18823;DHT22;9540;51.550;7.980;2024-03-02T02:42:39;7.10;99.90
18823;DHT22;9540;51.550;7.980;2024-03-02T02:45:06;7.10;99.90
18823;DHT22;9540;51.550;7.980;2024-03-02T02:47:34;7.00;99.90
18823;DHT22;9540;51.550;7.980;2024-03-02T02:50:02;7.00;99.90
18823;DHT22;9540;51.550;7.980;2024-03-02T02:52:33;7.00;99.90
18823;DHT22;9540;51.550;7.980;2024-03-02T02:55:03;6.90;99.90
18823;DHT22;9540;51.550;7.980;2024-03-02T02:57:32;6.90;99.90
18823;DHT22;9540;51.550;7.980;2024-03-02T03:00:02;6.90;99.90
18823;DHT22;9540;51.550;7.980;2024-03-02T03:02:36;6.70;99.90
18823;DHT22;9540;51.550;7.980;2024-03-02T03:05:04;6.60;99.90
18823;DHT22;9540;51.550;7.980;2024-03-02T03:07:32;6.50;99.90
18823;DHT22;9540;51.550;7.980;2024-03-02T03:09:59;6.30;99.90
18823;DHT22;9540;51.550;7.980;2024-03-02T03:12:27;6.20;99.90
18823;DHT22;9540;51.550;7.980;2024-03-02T03:14:55;6.10;99.90
18823;DHT22;9540;51.550;7.980;2024-03-02T03:17:22;6.00;99.90
18823;DHT22;9540;51.550;7.980;2024-03-02T03:19:50;5.90;99.90
18823;DHT22;9540;51.550;7.980;2024-03-02T03:22:17;5.70;99.90
18823;DHT22;9540;51.550;7.980;2024-03-02T03:24:44;5.70;99.90
18823;DHT22;9540;51.550;7.980;2024-03-02T03:27:12;5.60;99.90
18823;DHT22;9540;51.550;7.980;2024-03-02T03:29:39;5.50;99.90
18823;DHT22;9540;51.550;7.980;2024-03-02T03:32:07;5.40;99.90
18823;DHT22;9540;51.550;7.980;2024-03-02T03:34:35;5.40;99.90
18823;DHT22;9540;51.550;7.980;2024-03-02T03:37:02;5.40;99.90
18823;DHT22;9540;51.550;7.980;2024-03-02T03:39:29;5.40;99.90
18823;DHT22;9540;51.550;7.980;2024-03-02T03:41:56;5.50;99.90
18823;DHT22;9540;51.550;7.980;2024-03-02T03:44:23;5.50;99.90
18823;DHT22;9540;51.550;7.980;2024-03-02T03:46:50;5.60;99.90
18823;DHT22;9540;51.550;7.980;2024-03-02T03:49:19;5.90;99.90
18823;DHT22;9540;51.550;7.980;2024-03-02T03:51:46;6.00;99.90
18823;DHT22;9540;51.550;7.980;2024-03-02T03:54:13;6.10;99.90
18823;DHT22;9540;51.550;7.980;2024-03-02T03:56:40;6.20;99.90
18823;DHT22;9540;51.550;7.980;2024-03-02T03:59:08;6.30;99.90
18823;DHT22;9540;51.550;7.980;2024-03-02T04:01:35;6.20;99.90
18823;DHT22;9540;51.550;7.980;2024-03-02T04:04:02;6.10;99.90
18823;DHT22;9540;51.550;7.980;2024-03-02T04:06:30;5.90;99.90
18823;DHT22;9540;51.550;7.980;2024-03-02T04:08:57;5.80;99.90
18823;DHT22;9540;51.550;7.980;2024-03-02T04:11:25;5.70;99.90
18823;DHT22;9540;51.550;7.980;2024-03-02T04:13:52;5.70;99.90
18823;DHT22;9540;51.550;7.980;2024-03-02T04:16:19;5.70;99.90
18823;DHT22;9540;51.550;7.980;2024-03-02T04:18:46;5.60;99.90
18823;DHT22;9540;51.550;7.980;2024-03-02T04:21:12;5.60;99.90
18823;DHT22;9540;51.550;7.980;2024-03-02T04:23:44;5.40;99.90
18823;DHT22;9540;51.550;7.980;2024-03-02T04:26:11;5.40;99.90
18823;DHT22;9540;51.550;7.980;2024-03-02T04:28:38;5.30;99.90
18823;DHT22;9540;51.550;7.980;2024-03-02T04:31:05;5.20;99.90
18823;DHT22;9540;51.550;7.980;2024-03-02T04:33:32;5.10;99.90
18823;DHT22;9540;51.550;7.980;2024-03-02T04:35:59;5.10;99.90
18823;DHT22;9540;51.550;7.980;2024-03-02T04:38:26;5.00;99.90
18823;DHT22;9540;51.550;7.980;2024-03-02T04:40:55;5.10;99.90
18823;DHT22;9540;51.550;7.980;2024-03-02T04:43:22;5.10;99.90
18823;DHT22;9540;51.550;7.980;2024-03-02T04:45:49;5.10;99.90
18823;DHT22;9540;51.550;7.980;2024-03-02T04:48:17;5.00;99.90
18823;DHT22;9540;51.550;7.980;2024-03-02T04:50:44;5.00;99.90
18823;DHT22;9540;51.550;7.980;2024-03-02T04:53:12;5.00;99.90
18823;DHT22;9540;51.550;7.980;2024-03-02T04:55:39;4.90;99.90
18823;DHT22;9540;51.550;7.980;2024-03-02T04:58:36;4.90;99.90
18823;DHT22;9540;51.550;7.980;2024-03-02T05:01:04;4.90;99.90
18823;DHT22;9540;51.550;7.980;2024-03-02T05:03:31;4.80;99.90
18823;DHT22;9540;51.550;7.980;2024-03-02T05:06:00;4.70;99.90
18823;DHT22;9540;51.550;7.980;2024-03-02T05:08:27;4.70;99.90
18823;DHT22;9540;51.550;7.980;2024-03-02T05:10:54;4.70;99.90
18823;DHT22;9540;51.550;7.980;2024-03-02T05:13:42;4.70;99.90
18823;DHT22;9540;51.550;7.980;2024-03-02T05:16:09;4.70;99.90
18823;DHT22;9540;51.550;7.980;2024-03-02T05:18:37;4.70;99.90
18823;DHT22;9540;51.550;7.980;2024-03-02T05:21:05;4.70;99.90
18823;DHT22;9540;51.550;7.980;2024-03-02T05:23:32;4.70;99.90
18823;DHT22;9540;51.550;7.980;2024-03-02T05:25:59;4.60;99.90
18823;DHT22;9540;51.550;7.980;2024-03-02T05:28:26;4.60;99.90
18823;DHT22;9540;51.550;7.980;2024-03-02T05:30:54;4.50;99.90
18823;DHT22;9540;51.550;7.980;2024-03-02T05:33:22;4.50;99.90
18823;DHT22;9540;51.550;7.980;2024-03-02T05:35:49;4.50;99.90
18823;DHT22;9540;51.550;7.980;2024-03-02T05:38:16;4.50;99.90
18823;DHT22;9540;51.550;7.980;2024-03-02T05:40:43;4.50;99.90
18823;DHT22;9540;51.550;7.980;2024-03-02T05:43:10;4.60;99.90
18823;DHT22;9540;51.550;7.980;2024-03-02T05:45:38;4.50;99.90
18823;DHT22;9540;51.550;7.980;2024-03-02T05:48:07;4.50;99.90
18823;DHT22;9540;51.550;7.980;2024-03-02T05:50:34;4.50;99.90
18823;DHT22;9540;51.550;7.980;2024-03-02T05:53:02;4.60;99.90
18823;DHT22;9540;51.550;7.980;2024-03-02T05:55:29;4.80;99.90
18823;DHT22;9540;51.550;7.980;2024-03-02T05:57:56;4.90;99.90
18823;DHT22;9540;51.550;7.980;2024-03-02T06:00:41;5.10;99.90
18823;DHT22;9540;51.550;7.980;2024-03-02T06:03:09;5.20;99.90
18823;DHT22;9540;51.550;7.980;2024-03-02T06:05:36;5.20;99.90
18823;DHT22;9540;51.550;7.980;2024-03-02T06:08:04;5.30;99.90
18823;DHT22;9540;51.550;7.980;2024-03-02T06:10:31;5.40;99.90
18823;DHT22;9540;51.550;7.980;2024-03-02T06:12:58;5.40;99.90
18823;DHT22;9540;51.550;7.980;2024-03-02T06:15:25;5.40;99.90
18823;DHT22;9540;51.550;7.980;2024-03-02T06:17:53;5.30;99.90
18823;DHT22;9540;51.550;7.980;2024-03-02T06:20:21;5.30;99.90
18823;DHT22;9540;51.550;7.980;2024-03-02T06:22:48;5.30;99.90
18823;DHT22;9540;51.550;7.980;2024-03-02T06:25:15;5.30;99.90
18823;DHT22;9540;51.550;7.980;2024-03-02T06:27:42;5.30;99.90
18823;DHT22;9540;51.550;7.980;2024-03-02T06:30:11;5.30;99.90
18823;DHT22;9540;51.550;7.980;2024-03-02T06:32:38;5.30;99.90
18823;DHT22;9540;51.550;7.980;2024-03-02T06:35:06;5.40;99.90
18823;DHT22;9540;51.550;7.980;2024-03-02T06:37:37;5.60;99.90
18823;DHT22;9540;51.550;7.980;2024-03-02T06:40:06;5.60;99.90
18823;DHT22;9540;51.550;7.980;2024-03-02T06:42:33;5.80;99.90
18823;DHT22;9540;51.550;7.980;2024-03-02T06:45:01;5.90;99.90
18823;DHT22;9540;51.550;7.980;2024-03-02T06:47:28;5.90;99.90
18823;DHT22;9540;51.550;7.980;2024-03-02T06:49:55;6.10;99.90
18823;DHT22;9540;51.550;7.980;2024-03-02T06:52:24;6.30;99.90
18823;DHT22;9540;51.550;7.980;2024-03-02T06:54:52;6.40;99.90
18823;DHT22;9540;51.550;7.980;2024-03-02T06:57:20;6.50;99.90
18823;DHT22;9540;51.550;7.980;2024-03-02T06:59:47;6.50;99.90
18823;DHT22;9540;51.550;7.980;2024-03-02T07:02:16;6.60;99.90
18823;DHT22;9540;51.550;7.980;2024-03-02T07:04:43;6.70;99.90
18823;DHT22;9540;51.550;7.980;2024-03-02T07:07:11;6.80;99.90
18823;DHT22;9540;51.550;7.980;2024-03-02T07:09:38;6.90;99.90
18823;DHT22;9540;51.550;7.980;2024-03-02T07:12:07;7.00;99.90
18823;DHT22;9540;51.550;7.980;2024-03-02T07:14:34;7.10;99.90
18823;DHT22;9540;51.550;7.980;2024-03-02T07:17:18;7.10;99.90
18823;DHT22;9540;51.550;7.980;2024-03-02T07:19:45;7.50;99.90
18823;DHT22;9540;51.550;7.980;2024-03-02T07:22:12;8.00;99.90
18823;DHT22;9540;51.550;7.980;2024-03-02T07:24:40;8.30;99.90
18823;DHT22;9540;51.550;7.980;2024-03-02T07:27:09;8.50;99.90
18823;DHT22;9540;51.550;7.980;2024-03-02T07:29:38;8.60;99.90
18823;DHT22;9540;51.550;7.980;2024-03-02T07:32:08;8.70;99.90
18823;DHT22;9540;51.550;7.980;2024-03-02T07:34:35;8.90;99.90
18823;DHT22;9540;51.550;7.980;2024-03-02T07:37:03;9.00;99.90
18823;DHT22;9540;51.550;7.980;2024-03-02T07:39:30;9.10;99.90
18823;DHT22;9540;51.550;7.980;2024-03-02T07:41:57;9.20;99.90
18823;DHT22;9540;51.550;7.980;2024-03-02T07:44:26;9.20;99.90
18823;DHT22;9540;51.550;7.980;2024-03-02T07:46:53;9.30;99.90
18823;DHT22;9540;51.550;7.980;2024-03-02T07:49:20;9.30;99.90
18823;DHT22;9540;51.550;7.980;2024-03-02T07:51:47;9.30;99.90
18823;DHT22;9540;51.550;7.980;2024-03-02T07:54:15;9.40;99.90
18823;DHT22;9540;51.550;7.980;2024-03-02T07:56:42;9.50;99.90
18823;DHT22;9540;51.550;7.980;2024-03-02T07:59:09;9.60;99.90
18823;DHT22;9540;51.550;7.980;2024-03-02T08:01:38;9.90;99.90
18823;DHT22;9540;51.550;7.980;2024-03-02T08:04:05;10.30;99.90
18823;DHT22;9540;51.550;7.980;2024-03-02T08:06:33;10.70;99.90
18823;DHT22;9540;51.550;7.980;2024-03-02T08:09:01;11.30;99.90
18823;DHT22;9540;51.550;7.980;2024-03-02T08:11:30;12.10;99.90
18823;DHT22;9540;51.550;7.980;2024-03-02T08:13:57;12.70;99.90
18823;DHT22;9540;51.550;7.980;2024-03-02T08:16:25;13.40;99.90
18823;DHT22;9540;51.550;7.980;2024-03-02T08:18:53;13.70;99.90
18823;DHT22;9540;51.550;7.980;2024-03-02T08:21:23;13.40;99.90
18823;DHT22;9540;51.550;7.980;2024-03-02T08:23:50;13.30;99.90
18823;DHT22;9540;51.550;7.980;2024-03-02T08:26:17;13.30;99.90
18823;DHT22;9540;51.550;7.980;2024-03-02T08:28:44;13.80;99.90
18823;DHT22;9540;51.550;7.980;2024-03-02T08:31:12;14.00;99.90
18823;DHT22;9540;51.550;7.980;2024-03-02T08:33:39;14.30;99.90
18823;DHT22;9540;51.550;7.980;2024-03-02T08:36:08;14.40;99.90
18823;DHT22;9540;51.550;7.980;2024-03-02T08:38:36;14.40;99.90
18823;DHT22;9540;51.550;7.980;2024-03-02T08:41:04;14.20;99.90
18823;DHT22;9540;51.550;7.980;2024-03-02T08:43:31;14.20;99.90
18823;DHT22;9540;51.550;7.980;2024-03-02T08:45:58;14.00;99.90
18823;DHT22;9540;51.550;7.980;2024-03-02T08:48:25;13.80;99.90
18823;DHT22;9540;51.550;7.980;2024-03-02T08:50:52;14.20;99.90
18823;DHT22;9540;51.550;7.980;2024-03-02T08:53:21;15.00;99.90
18823;DHT22;9540;51.550;7.980;2024-03-02T08:55:49;15.40;99.90
18823;DHT22;9540;51.550;7.980;2024-03-02T08:58:16;15.60;99.90
18823;DHT22;9540;51.550;7.980;2024-03-02T09:00:43;16.20;99.90
18823;DHT22;9540;51.550;7.980;2024-03-02T09:03:10;16.50;99.90
18823;DHT22;9540;51.550;7.980;2024-03-02T09:05:38;16.70;99.90
18823;DHT22;9540;51.550;7.980;2024-03-02T09:08:05;16.10;99.90
18823;DHT22;9540;51.550;7.980;2024-03-02T09:10:34;15.80;99.90
18823;DHT22;9540;51.550;7.980;2024-03-02T09:13:01;15.40;99.90
18823;DHT22;9540;51.550;7.980;2024-03-02T09:15:28;15.00;99.90
18823;DHT22;9540;51.550;7.980;2024-03-02T09:17:55;14.30;99.90
18823;DHT22;9540;51.550;7.980;2024-03-02T09:20:22;14.70;99.90
18823;DHT22;9540;51.550;7.980;2024-03-02T09:22:49;15.30;99.90
18823;DHT22;9540;51.550;7.980;2024-03-02T09:25:16;16.20;99.90
18823;DHT22;9540;51.550;7.980;2024-03-02T09:27:45;16.40;99.90
18823;DHT22;9540;51.550;7.980;2024-03-02T09:30:13;16.80;99.90
18823;DHT22;9540;51.550;7.980;2024-03-02T09:32:41;17.50;99.90
18823;DHT22;9540;51.550;7.980;2024-03-02T09:35:08;17.30;99.90
18823;DHT22;9540;51.550;7.980;2024-03-02T09:37:35;16.90;99.90
18823;DHT22;9540;51.550;7.980;2024-03-02T09:40:03;16.90;99.90
18823;DHT22;9540;51.550;7.980;2024-03-02T09:42:32;16.40;99.90
18823;DHT22;9540;51.550;7.980;2024-03-02T09:45:00;16.80;99.90
18823;DHT22;9540;51.550;7.980;2024-03-02T09:47:27;16.30;99.90
18823;DHT22;9540;51.550;7.980;2024-03-02T09:49:55;16.10;99.90
18823;DHT22;9540;51.550;7.980;2024-03-02T09:52:23;16.20;99.90
18823;DHT22;9540;51.550;7.980;2024-03-02T09:54:50;16.00;99.90
18823;DHT22;9540;51.550;7.980;2024-03-02T09:57:17;16.20;99.90
18823;DHT22;9540;51.550;7.980;2024-03-02T09:59:44;16.00;99.90
18823;DHT22;9540;51.550;7.980;2024-03-02T10:02:13;16.00;99.90
18823;DHT22;9540;51.550;7.980;2024-03-02T10:04:40;15.60;99.90
18823;DHT22;9540;51.550;7.980;2024-03-02T10:07:12;15.60;99.90
18823;DHT22;9540;51.550;7.980;2024-03-02T10:09:39;15.50;99.90
18823;DHT22;9540;51.550;7.980;2024-03-02T10:12:08;15.60;99.90
18823;DHT22;9540;51.550;7.980;2024-03-02T10:14:35;15.70;99.90
18823;DHT22;9540;51.550;7.980;2024-03-02T10:17:03;15.70;99.90
18823;DHT22;9540;51.550;7.980;2024-03-02T10:19:34;15.70;99.90
18823;DHT22;9540;51.550;7.980;2024-03-02T10:22:03;15.60;99.90
18823;DHT22;9540;51.550;7.980;2024-03-02T10:24:41;15.40;99.90
18823;DHT22;9540;51.550;7.980;2024-03-02T10:27:14;14.70;99.90
18823;DHT22;9540;51.550;7.980;2024-03-02T10:29:42;14.50;99.90
18823;DHT22;9540;51.550;7.980;2024-03-02T10:32:10;14.80;99.90
18823;DHT22;9540;51.550;7.980;2024-03-02T10:34:40;14.70;99.90
18823;DHT22;9540;51.550;7.980;2024-03-02T10:37:07;14.80;99.90
18823;DHT22;9540;51.550;7.980;2024-03-02T10:39:35;14.90;99.90
18823;DHT22;9540;51.550;7.980;2024-03-02T10:42:03;14.90;99.90
18823;DHT22;9540;51.550;7.980;2024-03-02T10:44:31;14.90;99.90
18823;DHT22;9540;51.550;7.980;2024-03-02T10:47:00;15.10;99.90
18823;DHT22;9540;51.550;7.980;2024-03-02T10:49:29;14.80;99.90
18823;DHT22;9540;51.550;7.980;2024-03-02T10:51:58;14.80;99.90
18823;DHT22;9540;51.550;7.980;2024-03-02T10:54:26;14.40;99.90
18823;DHT22;9540;51.550;7.980;2024-03-02T10:56:58;14.20;99.90
18823;DHT22;9540;51.550;7.980;2024-03-02T10:59:28;14.20;99.90
18823;DHT22;9540;51.550;7.980;2024-03-02T11:01:58;14.60;99.90
18823;DHT22;9540;51.550;7.980;2024-03-02T11:04:26;14.50;99.90
18823;DHT22;9540;51.550;7.980;2024-03-02T11:07:02;14.40;99.90
18823;DHT22;9540;51.550;7.980;2024-03-02T11:09:30;14.30;99.90
18823;DHT22;9540;51.550;7.980;2024-03-02T11:12:03;14.20;99.90
18823;DHT22;9540;51.550;7.980;2024-03-02T11:14:31;14.10;99.90
18823;DHT22;9540;51.550;7.980;2024-03-02T11:17:00;14.20;99.90
18823;DHT22;9540;51.550;7.980;2024-03-02T11:19:29;14.30;99.90
18823;DHT22;9540;51.550;7.980;2024-03-02T11:21:57;14.70;99.90
18823;DHT22;9540;51.550;7.980;2024-03-02T11:24:35;14.70;99.90
18823;DHT22;9540;51.550;7.980;2024-03-02T11:27:04;14.60;99.90
18823;DHT22;9540;51.550;7.980;2024-03-02T11:29:43;14.50;99.90
18823;DHT22;9540;51.550;7.980;2024-03-02T11:32:15;14.70;99.90
18823;DHT22;9540;51.550;7.980;2024-03-02T11:34:44;14.90;99.90
18823;DHT22;9540;51.550;7.980;2024-03-02T11:37:12;14.80;99.90
18823;DHT22;9540;51.550;7.980;2024-03-02T11:39:43;14.80;99.90
18823;DHT22;9540;51.550;7.980;2024-03-02T11:42:11;14.70;99.90
18823;DHT22;9540;51.550;7.980;2024-03-02T11:44:42;14.90;99.90
18823;DHT22;9540;51.550;7.980;2024-03-02T11:47:12;14.80;99.90
18823;DHT22;9540;51.550;7.980;2024-03-02T11:49:42;14.80;99.90
18823;DHT22;9540;51.550;7.980;2024-03-02T11:52:11;15.00;99.90
18823;DHT22;9540;51.550;7.980;2024-03-02T11:54:41;15.10;99.90
18823;DHT22;9540;51.550;7.980;2024-03-02T11:57:12;15.10;99.90
18823;DHT22;9540;51.550;7.980;2024-03-02T11:59:40;15.30;99.90
18823;DHT22;9540;51.550;7.980;2024-03-02T12:02:14;15.40;99.90
18823;DHT22;9540;51.550;7.980;2024-03-02T12:04:43;15.40;99.90
18823;DHT22;9540;51.550;7.980;2024-03-02T12:07:11;15.20;99.90
18823;DHT22;9540;51.550;7.980;2024-03-02T12:09:38;15.10;99.90
18823;DHT22;9540;51.550;7.980;2024-03-02T12:12:08;15.40;99.90
18823;DHT22;9540;51.550;7.980;2024-03-02T12:14:36;15.50;99.90
18823;DHT22;9540;51.550;7.980;2024-03-02T12:17:04;15.50;99.90
18823;DHT22;9540;51.550;7.980;2024-03-02T12:19:32;15.60;99.90
18823;DHT22;9540;51.550;7.980;2024-03-02T12:22:00;15.40;99.90
18823;DHT22;9540;51.550;7.980;2024-03-02T12:24:28;15.40;99.90
18823;DHT22;9540;51.550;7.980;2024-03-02T12:26:56;15.50;99.90
18823;DHT22;9540;51.550;7.980;2024-03-02T12:29:27;15.70;99.90
18823;DHT22;9540;51.550;7.980;2024-03-02T12:31:54;15.60;99.90
18823;DHT22;9540;51.550;7.980;2024-03-02T12:34:22;15.70;99.90
18823;DHT22;9540;51.550;7.980;2024-03-02T12:36:50;16.20;99.90
18823;DHT22;9540;51.550;7.980;2024-03-02T12:39:19;16.40;99.90
18823;DHT22;9540;51.550;7.980;2024-03-02T12:41:49;16.30;99.90
18823;DHT22;9540;51.550;7.980;2024-03-02T12:44:17;16.00;99.90
18823;DHT22;9540;51.550;7.980;2024-03-02T12:46:46;16.00;99.90
18823;DHT22;9540;51.550;7.980;2024-03-02T12:49:15;15.90;99.90
18823;DHT22;9540;51.550;7.980;2024-03-02T12:51:43;15.70;99.90
18823;DHT22;9540;51.550;7.980;2024-03-02T12:54:12;16.20;99.90
18823;DHT22;9540;51.550;7.980;2024-03-02T12:56:41;16.50;99.90
18823;DHT22;9540;51.550;7.980;2024-03-02T12:59:17;16.60;99.90
18823;DHT22;9540;51.550;7.980;2024-03-02T13:01:51;16.50;99.90
18823;DHT22;9540;51.550;7.980;2024-03-02T13:04:22;16.30;99.90
18823;DHT22;9540;51.550;7.980;2024-03-02T13:06:50;16.10;99.90
18823;DHT22;9540;51.550;7.980;2024-03-02T13:09:19;15.90;99.90
18823;DHT22;9540;51.550;7.980;2024-03-02T13:11:46;15.90;99.90
18823;DHT22;9540;51.550;7.980;2024-03-02T13:14:14;15.90;99.90
18823;DHT22;9540;51.550;7.980;2024-03-02T13:16:41;15.90;99.90
18823;DHT22;9540;51.550;7.980;2024-03-02T13:19:11;15.80;99.90
18823;DHT22;9540;51.550;7.980;2024-03-02T13:21:38;15.70;99.90
18823;DHT22;9540;51.550;7.980;2024-03-02T13:24:07;15.30;99.90
18823;DHT22;9540;51.550;7.980;2024-03-02T13:26:34;15.20;99.90
18823;DHT22;9540;51.550;7.980;2024-03-02T13:29:01;15.10;99.90
18823;DHT22;9540;51.550;7.980;2024-03-02T13:31:29;15.00;99.90
18823;DHT22;9540;51.550;7.980;2024-03-02T13:33:56;15.10;99.90
18823;DHT22;9540;51.550;7.980;2024-03-02T13:36:24;15.10;99.90
18823;DHT22;9540;51.550;7.980;2024-03-02T13:38:51;14.90;99.90
18823;DHT22;9540;51.550;7.980;2024-03-02T13:41:19;14.70;99.90
18823;DHT22;9540;51.550;7.980;2024-03-02T13:43:46;14.40;99.90
18823;DHT22;9540;51.550;7.980;2024-03-02T13:46:14;14.10;99.90
18823;DHT22;9540;51.550;7.980;2024-03-02T13:48:41;14.00;99.90
18823;DHT22;9540;51.550;7.980;2024-03-02T13:51:08;14.30;99.90
18823;DHT22;9540;51.550;7.980;2024-03-02T13:53:36;14.40;99.90
18823;DHT22;9540;51.550;7.980;2024-03-02T13:56:04;14.50;99.90
18823;DHT22;9540;51.550;7.980;2024-03-02T13:58:32;14.60;99.90
18823;DHT22;9540;51.550;7.980;2024-03-02T14:01:00;14.70;99.90
18823;DHT22;9540;51.550;7.980;2024-03-02T14:03:30;14.70;99.90
18823;DHT22;9540;51.550;7.980;2024-03-02T14:05:57;14.70;99.90
18823;DHT22;9540;51.550;7.980;2024-03-02T14:08:25;14.60;99.90
18823;DHT22;9540;51.550;7.980;2024-03-02T14:10:54;14.60;99.90
18823;DHT22;9540;51.550;7.980;2024-03-02T14:13:24;14.40;99.90
18823;DHT22;9540;51.550;7.980;2024-03-02T14:15:51;14.10;99.90
18823;DHT22;9540;51.550;7.980;2024-03-02T14:18:19;14.10;99.90
18823;DHT22;9540;51.550;7.980;2024-03-02T14:20:46;14.00;99.90
18823;DHT22;9540;51.550;7.980;2024-03-02T14:23:17;14.00;99.90
18823;DHT22;9540;51.550;7.980;2024-03-02T14:25:45;14.10;99.90
18823;DHT22;9540;51.550;7.980;2024-03-02T14:28:13;14.20;99.90
18823;DHT22;9540;51.550;7.980;2024-03-02T14:30:42;14.20;99.90
18823;DHT22;9540;51.550;7.980;2024-03-02T14:33:09;14.00;99.90
18823;DHT22;9540;51.550;7.980;2024-03-02T14:35:37;14.00;99.90
18823;DHT22;9540;51.550;7.980;2024-03-02T14:38:05;14.10;99.90
18823;DHT22;9540;51.550;7.980;2024-03-02T14:40:32;14.10;99.90
18823;DHT22;9540;51.550;7.980;2024-03-02T14:42:59;14.10;99.90
18823;DHT22;9540;51.550;7.980;2024-03-02T14:45:28;14.20;99.90
18823;DHT22;9540;51.550;7.980;2024-03-02T14:47:55;14.30;99.90
18823;DHT22;9540;51.550;7.980;2024-03-02T14:50:25;14.20;99.90
18823;DHT22;9540;51.550;7.980;2024-03-02T14:52:52;14.10;99.90
18823;DHT22;9540;51.550;7.980;2024-03-02T14:55:19;14.10;99.90
18823;DHT22;9540;51.550;7.980;2024-03-02T14:57:46;14.00;99.90
18823;DHT22;9540;51.550;7.980;2024-03-02T15:00:13;13.80;99.90
18823;DHT22;9540;51.550;7.980;2024-03-02T15:02:42;13.70;99.90
18823;DHT22;9540;51.550;7.980;2024-03-02T15:05:09;13.60;99.90
18823;DHT22;9540;51.550;7.980;2024-03-02T15:07:36;13.50;99.90
18823;DHT22;9540;51.550;7.980;2024-03-02T15:10:05;13.50;99.90
18823;DHT22;9540;51.550;7.980;2024-03-02T15:12:32;13.50;99.90
18823;DHT22;9540;51.550;7.980;2024-03-02T15:14:59;13.40;99.90
18823;DHT22;9540;51.550;7.980;2024-03-02T15:17:26;13.50;99.90
18823;DHT22;9540;51.550;7.980;2024-03-02T15:19:55;13.50;99.90
18823;DHT22;9540;51.550;7.980;2024-03-02T15:22:22;13.50;99.90
18823;DHT22;9540;51.550;7.980;2024-03-02T15:24:50;13.50;99.90
18823;DHT22;9540;51.550;7.980;2024-03-02T15:30:26;13.50;99.90
18823;DHT22;9540;51.550;7.980;2024-03-02T15:39:45;13.50;99.90
18823;DHT22;9540;51.550;7.980;2024-03-02T15:42:15;13.50;99.90
18823;DHT22;9540;51.550;7.980;2024-03-02T15:44:43;13.50;99.90
18823;DHT22;9540;51.550;7.980;2024-03-02T15:47:10;13.40;99.90
18823;DHT22;9540;51.550;7.980;2024-03-02T15:49:37;13.40;99.90
18823;DHT22;9540;51.550;7.980;2024-03-02T15:52:04;13.40;99.90
18823;DHT22;9540;51.550;7.980;2024-03-02T15:54:31;13.40;99.90
18823;DHT22;9540;51.550;7.980;2024-03-02T15:57:00;13.40;99.90
18823;DHT22;9540;51.550;7.980;2024-03-02T15:59:27;13.40;99.90
18823;DHT22;9540;51.550;7.980;2024-03-02T16:01:54;13.40;99.90
18823;DHT22;9540;51.550;7.980;2024-03-02T16:04:23;13.40;99.90
18823;DHT22;9540;51.550;7.980;2024-03-02T16:06:50;13.30;99.90
18823;DHT22;9540;51.550;7.980;2024-03-02T16:09:17;13.30;99.90
18823;DHT22;9540;51.550;7.980;2024-03-02T16:11:44;13.10;99.90
18823;DHT22;9540;51.550;7.980;2024-03-02T16:14:13;13.10;99.90